Time;durP1;ratioP1;P1;durP2;ratioP2;P2;SDS_P1;SDS_P2;PMS_P1;PMS_P2;Temp;Humidity;BMP_temperature;BMP_pressure;BME280_temperature;BME280_humidity;BME280_pressure;Samples;Min_cycle;Max_cycle;Signal;HPM_P1;HPM_P2
2022/01/21 00:01:28;;;;;;;10.55;3.30;;;;;;;;;;6281238;28;20070;-64
2022/01/21 00:04:34;;;;;;;11.65;3.70;;;;;;;;;;6281085;28;20098;-65
2022/01/21 00:07:38;;;;;;;12.55;3.53;;;;;;;;;;6280317;28;20071;-65
2022/01/21 00:10:40;;;;;;;9.82;3.35;;;;;;;;;;6280085;28;20056;-65
2022/01/21 00:13:44;;;;;;;8.63;3.20;;;;;;;;;;6281190;28;20083;-65
2022/01/21 00:16:47;;;;;;;8.63;3.47;;;;;;;;;;6281386;28;20395;-65
2022/01/21 00:30:06;;;;;;;8.68;2.75;;;;;;;;;;6278515;28;20476;-64
2022/01/21 00:30:16;;;;;;;12.20;4.20;;;;;;;;;;6267620;28;20180;-64
2022/01/21 00:33:19;;;;;;;5.25;1.98;;;;;;;;;;6269734;28;20056;-64
2022/01/21 00:36:24;;;;;;;3.70;1.50;;;;;;;;;;6280641;28;20056;-64
2022/01/21 00:39:30;;;;;;;8.50;1.98;;;;;;;;;;6285957;28;20679;-64
2022/01/21 00:46:02;;;;;;;5.38;1.20;;;;;;;;;;6282315;28;20091;-64
2022/01/21 00:49:05;;;;;;;5.40;2.35;;;;;;;;;;6291884;28;20049;-64
2022/01/21 00:52:09;;;;;;;4.93;1.67;;;;;;;;;;6293337;28;20488;-63
2022/01/21 00:55:12;;;;;;;5.30;1.67;;;;;;;;;;6291260;28;20052;-64
2022/01/21 00:58:18;;;;;;;6.00;1.50;;;;;;;;;;6293480;28;20075;-64
2022/01/21 01:01:20;;;;;;;6.88;1.45;;;;;;;;;;6286818;28;20041;-64
2022/01/21 01:04:27;;;;;;;4.80;1.38;;;;;;;;;;6277263;28;20083;-64
2022/01/21 01:07:31;;;;;;;7.35;1.40;;;;;;;;;;6267844;28;20041;-64
2022/01/21 01:10:45;;;;;;;3.83;1.20;;;;;;;;;;6270740;28;20079;-63
2022/01/21 01:20:31;;;;;;;2.42;0.80;;;;;;;;;;6271500;28;20048;-64
2022/01/21 01:23:50;;;;;;;2.95;1.02;;;;;;;;;;6279203;28;20036;-64
2022/01/21 01:30:17;;;;;;;2.80;1.27;;;;;;;;;;6278157;28;20487;-64
2022/01/21 01:33:26;;;;;;;1.80;1.02;;;;;;;;;;6277574;28;20048;-64
2022/01/21 01:36:29;;;;;;;3.25;1.17;;;;;;;;;;6278254;28;20083;-64
2022/01/21 01:39:41;;;;;;;5.03;1.40;;;;;;;;;;6279586;28;20072;-64
2022/01/21 01:49:35;;;;;;;2.38;1.20;;;;;;;;;;6292394;28;20520;-64
2022/01/21 01:52:38;;;;;;;3.38;1.10;;;;;;;;;;6290876;28;20138;-64
2022/01/21 01:55:42;;;;;;;3.45;1.00;;;;;;;;;;6291442;28;20044;-64
2022/01/21 01:58:45;;;;;;;8.25;1.08;;;;;;;;;;6292568;28;20054;-64
2022/01/21 02:01:52;;;;;;;6.13;1.70;;;;;;;;;;6289895;28;20112;-63
2022/01/21 02:04:57;;;;;;;2.42;1.23;;;;;;;;;;6288086;28;20052;-64
2022/01/21 02:08:00;;;;;;;2.60;0.90;;;;;;;;;;6276154;28;20064;-64
2022/01/21 02:11:05;;;;;;;4.07;1.30;;;;;;;;;;6283502;28;20067;-63
2022/01/21 02:14:11;;;;;;;5.30;1.17;;;;;;;;;;6265755;28;20069;-64
2022/01/21 02:21:27;;;;;;;5.95;1.15;;;;;;;;;;6266328;28;20045;-64
2022/01/21 02:24:06;;;;;;;5.28;1.95;;;;;;;;;;6267148;28;20047;-63
2022/01/21 02:27:09;;;;;;;2.53;0.93;;;;;;;;;;6265415;28;20088;-64
2022/01/21 02:30:18;;;;;;;1.52;0.82;;;;;;;;;;6264902;28;20484;-64
2022/01/21 02:33:26;;;;;;;3.13;1.00;;;;;;;;;;6265873;28;20076;-64
2022/01/21 02:36:32;;;;;;;4.68;1.23;;;;;;;;;;6265443;28;20045;-64
2022/01/21 02:39:38;;;;;;;;;;;;;;;;;;6265966;28;20079;-64
2022/01/21 02:42:43;;;;;;;4.35;1.13;;;;;;;;;;6265044;28;19928;-64
2022/01/21 02:45:47;;;;;;;4.80;1.27;;;;;;;;;;6265658;28;20483;-64
2022/01/21 02:48:50;;;;;;;2.47;1.00;;;;;;;;;;6265274;28;20045;-65
2022/01/21 02:51:54;;;;;;;4.97;1.40;;;;;;;;;;6264719;28;20573;-64
2022/01/21 02:55:00;;;;;;;2.13;1.75;;;;;;;;;;6270255;28;20044;-64
2022/01/21 02:58:04;;;;;;;4.45;1.15;;;;;;;;;;6281258;28;20542;-63
2022/01/21 03:01:08;;;;;;;3.77;1.10;;;;;;;;;;6265241;28;20119;-65
2022/01/21 03:04:17;;;;;;;6.50;1.60;;;;;;;;;;6265036;28;20049;-63
2022/01/21 03:07:20;;;;;;;2.78;1.05;;;;;;;;;;6265377;28;20510;-63
2022/01/21 03:10:26;;;;;;;2.35;0.98;;;;;;;;;;6265302;28;20094;-63
2022/01/21 03:13:30;;;;;;;1.92;1.13;;;;;;;;;;6267934;28;20045;-64
2022/01/21 03:16:33;;;;;;;4.53;0.90;;;;;;;;;;6269721;28;20076;-64
2022/01/21 03:19:36;;;;;;;3.55;0.80;;;;;;;;;;6270521;28;20422;-64
2022/01/21 03:22:42;;;;;;;2.40;0.80;;;;;;;;;;6270383;28;20072;-64
2022/01/21 03:25:47;;;;;;;2.55;1.20;;;;;;;;;;6270773;28;20057;-64
2022/01/21 03:28:52;;;;;;;2.47;1.50;;;;;;;;;;6269355;28;20080;-63
2022/01/21 03:31:56;;;;;;;2.22;1.10;;;;;;;;;;6269271;28;20451;-63
2022/01/21 03:35:01;;;;;;;4.07;0.95;;;;;;;;;;6268488;28;20084;-64
2022/01/21 03:38:04;;;;;;;3.25;1.00;;;;;;;;;;6269482;28;20470;-63
2022/01/21 03:41:08;;;;;;;5.03;1.70;;;;;;;;;;6268760;28;20119;-65
2022/01/21 03:44:15;;;;;;;2.10;0.80;;;;;;;;;;6268379;28;20048;-64
2022/01/21 03:47:18;;;;;;;2.83;1.10;;;;;;;;;;6268620;28;20081;-65
2022/01/21 03:50:30;;;;;;;3.65;1.38;;;;;;;;;;6268801;28;20114;-63
2022/01/21 03:53:33;;;;;;;4.18;1.70;;;;;;;;;;6268743;28;20087;-63
2022/01/21 03:56:39;;;;;;;2.95;1.45;;;;;;;;;;6268028;28;20110;-63
2022/01/21 03:59:46;;;;;;;2.42;1.13;;;;;;;;;;6268927;28;20119;-63
2022/01/21 04:02:50;;;;;;;2.78;1.55;;;;;;;;;;6268299;28;20472;-64
2022/01/21 04:05:58;;;;;;;4.72;1.40;;;;;;;;;;6268157;28;20076;-64
2022/01/21 04:09:03;;;;;;;4.50;1.40;;;;;;;;;;6268145;28;20084;-64
2022/01/21 04:12:07;;;;;;;4.50;1.35;;;;;;;;;;6268362;28;20099;-63
2022/01/21 04:15:12;;;;;;;3.40;1.15;;;;;;;;;;6268199;28;20053;-64
2022/01/21 04:18:16;;;;;;;4.32;1.02;;;;;;;;;;6267608;28;20068;-64
2022/01/21 04:21:22;;;;;;;6.55;1.67;;;;;;;;;;6268355;28;20124;-64
2022/01/21 04:24:28;;;;;;;3.53;1.65;;;;;;;;;;6267235;28;20612;-64
2022/01/21 04:27:32;;;;;;;2.72;1.10;;;;;;;;;;6267263;28;20102;-64
2022/01/21 04:30:39;;;;;;;2.78;1.27;;;;;;;;;;6267760;28;20476;-64
2022/01/21 04:33:41;;;;;;;2.95;1.63;;;;;;;;;;6268985;28;20057;-64
2022/01/21 04:36:45;;;;;;;3.70;1.35;;;;;;;;;;6267691;28;20045;-64
2022/01/21 04:39:54;;;;;;;4.78;1.67;;;;;;;;;;6266979;28;20106;-64
2022/01/21 04:49:50;;;;;;;3.60;1.55;;;;;;;;;;6267313;28;20317;-64
2022/01/21 04:52:54;;;;;;;4.43;1.45;;;;;;;;;;6266651;28;20083;-64
2022/01/21 04:56:07;;;;;;;3.00;1.65;;;;;;;;;;6267448;28;20076;-64
2022/01/21 04:59:10;;;;;;;3.22;1.65;;;;;;;;;;6266999;28;20052;-64
2022/01/21 05:02:17;;;;;;;6.57;1.80;;;;;;;;;;6266895;28;20064;-64
2022/01/21 05:05:20;;;;;;;5.50;1.83;;;;;;;;;;6266719;28;20133;-63
2022/01/21 05:08:30;;;;;;;5.03;1.65;;;;;;;;;;6266963;28;20076;-64
2022/01/21 05:11:36;;;;;;;5.00;1.55;;;;;;;;;;6266903;28;20053;-64
2022/01/21 05:14:49;;;;;;;2.92;1.60;;;;;;;;;;6266262;28;20076;-64
2022/01/21 05:17:59;;;;;;;5.93;1.40;;;;;;;;;;6266929;28;20048;-64
2022/01/21 05:21:16;;;;;;;6.90;1.73;;;;;;;;;;6266657;28;20114;-64
2022/01/21 05:24:33;;;;;;;4.55;1.52;;;;;;;;;;6267069;28;20049;-64
2022/01/21 05:27:36;;;;;;;5.30;1.73;;;;;;;;;;6265632;28;20072;-64
2022/01/21 05:30:39;;;;;;;5.18;1.60;;;;;;;;;;6266725;28;20565;-64
2022/01/21 05:34:12;;;;;;;3.13;1.60;;;;;;;;;;6250170;28;20073;-65
2022/01/21 05:37:20;;;;;;;4.60;2.22;;;;;;;;;;6266289;28;20499;-65
2022/01/21 05:40:43;;;;;;;6.72;1.75;;;;;;;;;;6267040;28;20140;-64
2022/01/21 05:46:22;;;;;;;4.10;1.60;;;;;;;;;;6265917;28;20036;-64
2022/01/21 05:48:08;;;;;;;1.70;1.13;;;;;;;;;;6266200;28;20057;-63
2022/01/21 05:51:31;;;;;;;3.05;1.38;;;;;;;;;;6267526;28;20048;-64
2022/01/21 05:54:34;;;;;;;5.28;1.60;;;;;;;;;;6267173;28;20093;-64
2022/01/21 05:58:13;;;;;;;5.50;1.65;;;;;;;;;;6266461;28;20060;-64
2022/01/21 06:01:19;;;;;;;5.63;1.88;;;;;;;;;;6265952;28;20075;-64
2022/01/21 06:04:23;;;;;;;6.35;1.95;;;;;;;;;;6265873;28;20048;-64
2022/01/21 06:07:27;;;;;;;3.65;1.60;;;;;;;;;;6265721;28;20068;-65
2022/01/21 06:10:30;;;;;;;4.43;1.70;;;;;;;;;;6265113;28;20468;-65
2022/01/21 06:13:34;;;;;;;5.47;1.67;;;;;;;;;;6267222;28;20080;-65
2022/01/21 06:16:38;;;;;;;6.25;1.50;;;;;;;;;;6265807;28;20045;-64
2022/01/21 06:19:42;;;;;;;4.28;1.67;;;;;;;;;;6265097;28;20507;-64
2022/01/21 06:22:46;;;;;;;3.15;1.67;;;;;;;;;;6266932;28;20072;-65
2022/01/21 06:25:52;;;;;;;3.75;1.40;;;;;;;;;;6265207;28;20068;-64
2022/01/21 06:28:57;;;;;;;3.70;1.88;;;;;;;;;;6267411;28;20098;-64
2022/01/21 06:32:00;;;;;;;5.10;1.50;;;;;;;;;;6265142;28;20068;-64
2022/01/21 06:35:02;;;;;;;4.05;1.63;;;;;;;;;;6266400;28;20056;-65
2022/01/21 06:38:07;;;;;;;3.03;1.75;;;;;;;;;;6275908;28;20076;-65
2022/01/21 06:41:10;;;;;;;4.38;1.67;;;;;;;;;;6277722;28;20056;-64
2022/01/21 06:44:13;;;;;;;5.13;1.90;;;;;;;;;;6291452;28;20068;-64
2022/01/21 06:47:19;;;;;;;5.83;1.80;;;;;;;;;;6273742;28;20155;-64
2022/01/21 06:50:22;;;;;;;5.47;1.88;;;;;;;;;;6270727;28;20479;-65
2022/01/21 06:53:26;;;;;;;6.18;2.05;;;;;;;;;;6271050;28;20056;-65
2022/01/21 06:56:30;;;;;;;6.28;2.03;;;;;;;;;;6271403;28;20073;-64
2022/01/21 06:59:33;;;;;;;6.07;2.10;;;;;;;;;;6271043;28;20499;-64
2022/01/21 07:02:36;;;;;;;3.60;1.88;;;;;;;;;;6270514;28;20048;-64
2022/01/21 07:05:39;;;;;;;8.13;2.30;;;;;;;;;;6270098;28;20049;-64
2022/01/21 07:08:43;;;;;;;6.95;2.10;;;;;;;;;;6269566;28;20135;-64
2022/01/21 07:11:46;;;;;;;2.97;1.83;;;;;;;;;;6269776;28;20051;-64
2022/01/21 07:14:49;;;;;;;5.97;1.63;;;;;;;;;;6291392;28;20076;-64
2022/01/21 07:17:55;;;;;;;5.18;2.20;;;;;;;;;;6285582;28;20050;-64
2022/01/21 07:20:58;;;;;;;4.90;1.55;;;;;;;;;;6271930;28;20072;-64
2022/01/21 07:24:02;;;;;;;5.97;1.92;;;;;;;;;;6268754;28;20126;-65
2022/01/21 07:27:05;;;;;;;4.20;1.60;;;;;;;;;;6270611;28;20875;-65
2022/01/21 07:30:12;;;;;;;6.28;1.90;;;;;;;;;;6270298;28;20049;-64
2022/01/21 07:33:15;;;;;;;5.72;1.80;;;;;;;;;;6268526;28;20072;-65
2022/01/21 07:36:18;;;;;;;7.20;1.85;;;;;;;;;;6270435;28;20047;-64
2022/01/21 07:39:25;;;;;;;8.63;1.88;;;;;;;;;;6252679;28;20080;-64
2022/01/21 07:42:29;;;;;;;4.57;1.50;;;;;;;;;;6269954;28;20049;-64
2022/01/21 07:45:35;;;;;;;7.22;1.83;;;;;;;;;;6268261;28;20510;-64
2022/01/21 07:48:37;;;;;;;4.25;1.60;;;;;;;;;;6270034;28;20049;-64
2022/01/21 07:51:41;;;;;;;6.45;1.70;;;;;;;;;;6269139;28;20079;-64
2022/01/21 07:54:45;;;;;;;6.55;1.70;;;;;;;;;;6269339;28;20056;-64
2022/01/21 07:57:48;;;;;;;8.73;1.88;;;;;;;;;;6268196;28;20087;-64
2022/01/21 08:00:51;;;;;;;8.00;1.77;;;;;;;;;;6267581;28;20407;-64
2022/01/21 08:03:54;;;;;;;7.35;1.80;;;;;;;;;;6268336;28;20095;-64
2022/01/21 08:06:59;;;;;;;4.03;1.42;;;;;;;;;;6267952;28;20041;-66
2022/01/21 08:10:04;;;;;;;5.93;1.45;;;;;;;;;;6268401;28;20073;-64
2022/01/21 08:13:07;;;;;;;6.10;2.58;;;;;;;;;;6269383;28;20049;-64
2022/01/21 08:16:12;;;;;;;4.18;1.60;;;;;;;;;;6267589;28;20487;-64
2022/01/21 08:19:15;;;;;;;7.80;1.70;;;;;;;;;;6277180;28;20040;-64
2022/01/21 08:22:20;;;;;;;4.43;1.70;;;;;;;;;;6277353;28;20048;-64
2022/01/21 08:25:25;;;;;;;3.42;1.75;;;;;;;;;;6291379;28;20048;-64
2022/01/21 08:28:30;;;;;;;4.93;1.80;;;;;;;;;;6292415;28;20102;-64
2022/01/21 08:31:34;;;;;;;8.23;1.73;;;;;;;;;;6292325;28;20044;-64
2022/01/21 08:34:37;;;;;;;6.75;2.05;;;;;;;;;;6292386;28;20068;-63
2022/01/21 08:37:40;;;;;;;5.63;1.90;;;;;;;;;;6291649;28;20053;-63
2022/01/21 08:40:44;;;;;;;3.92;1.80;;;;;;;;;;6293684;28;20055;-63
2022/01/21 08:43:47;;;;;;;2.92;2.00;;;;;;;;;;6293367;28;20036;-68
2022/01/21 08:46:50;;;;;;;5.28;1.30;;;;;;;;;;6291577;28;20076;-69
2022/01/21 08:50:13;;;;;;;5.28;1.83;;;;;;;;;;6291825;28;20536;-67
2022/01/21 08:53:38;;;;;;;4.28;1.35;;;;;;;;;;6293592;28;20083;-65
2022/01/21 08:56:43;;;;;;;6.57;1.55;;;;;;;;;;6293538;28;20064;-65
2022/01/21 08:59:46;;;;;;;3.28;1.48;;;;;;;;;;6292364;28;20048;-65
2022/01/21 09:02:51;;;;;;;11.10;3.17;;;;;;;;;;6291736;28;20063;-65
2022/01/21 09:05:54;;;;;;;6.97;2.38;;;;;;;;;;6291481;28;20122;-65
2022/01/21 09:08:57;;;;;;;5.45;1.55;;;;;;;;;;6291432;28;20149;-65
2022/01/21 09:12:01;;;;;;;5.50;1.50;;;;;;;;;;6292478;28;20075;-65
2022/01/21 09:15:07;;;;;;;5.28;2.00;;;;;;;;;;6291524;28;20048;-65
2022/01/21 09:18:10;;;;;;;8.68;1.63;;;;;;;;;;6292706;28;20491;-64
2022/01/21 09:21:13;;;;;;;4.53;1.30;;;;;;;;;;6291960;28;20503;-66
2022/01/21 09:24:16;;;;;;;6.97;1.67;;;;;;;;;;6291391;28;20072;-65
2022/01/21 09:27:20;;;;;;;5.10;1.15;;;;;;;;;;6292227;28;20458;-64
2022/01/21 09:30:23;;;;;;;6.22;1.85;;;;;;;;;;6290786;28;20410;-65
2022/01/21 09:33:26;;;;;;;3.28;1.17;;;;;;;;;;6291058;28;20052;-66
2022/01/21 09:36:29;;;;;;;2.67;1.02;;;;;;;;;;6291061;28;20122;-65
2022/01/21 09:39:32;;;;;;;2.35;1.13;;;;;;;;;;6292193;28;20048;-66
2022/01/21 09:42:39;;;;;;;6.53;1.55;;;;;;;;;;6290348;28;20055;-65
2022/01/21 09:45:42;;;;;;;5.78;1.38;;;;;;;;;;6291172;28;20048;-65
2022/01/21 09:48:54;;;;;;;4.38;1.40;;;;;;;;;;6292063;28;20060;-65
2022/01/21 09:51:59;;;;;;;2.50;0.90;;;;;;;;;;6291703;28;20045;-65
2022/01/21 09:55:03;;;;;;;3.25;1.40;;;;;;;;;;6292043;28;20434;-65
2022/01/21 09:58:08;;;;;;;7.75;2.15;;;;;;;;;;6291646;28;20048;-65
2022/01/21 10:01:13;;;;;;;5.53;1.50;;;;;;;;;;6290860;28;20044;-64
2022/01/21 10:04:17;;;;;;;2.90;1.40;;;;;;;;;;6289925;28;20067;-64
2022/01/21 10:07:23;;;;;;;9.40;1.55;;;;;;;;;;6291862;28;20064;-64
2022/01/21 10:10:26;;;;;;;6.00;1.63;;;;;;;;;;6290076;28;20044;-64
2022/01/21 10:13:34;;;;;;;7.30;1.40;;;;;;;;;;6289475;28;20082;-65
2022/01/21 10:16:37;;;;;;;8.25;1.58;;;;;;;;;;6289583;28;20044;-64
2022/01/21 10:19:45;;;;;;;5.07;1.70;;;;;;;;;;6287470;28;20063;-64
2022/01/21 10:22:56;;;;;;;4.10;1.65;;;;;;;;;;6289806;28;20044;-64
2022/01/21 10:26:01;;;;;;;8.80;1.90;;;;;;;;;;6293031;28;20080;-65
2022/01/21 10:29:08;;;;;;;5.85;1.65;;;;;;;;;;6292370;28;20044;-65
2022/01/21 10:32:11;;;;;;;10.70;1.90;;;;;;;;;;6295277;28;20083;-64
2022/01/21 10:35:19;;;;;;;5.10;1.85;;;;;;;;;;6296158;28;20044;-65
2022/01/21 10:38:27;;;;;;;7.97;2.17;;;;;;;;;;6294792;28;20125;-65
2022/01/21 10:41:31;;;;;;;7.30;2.40;;;;;;;;;;6296252;28;20414;-64
2022/01/21 10:44:46;;;;;;;6.30;1.90;;;;;;;;;;6295971;28;20076;-67
2022/01/21 10:47:50;;;;;;;7.55;2.10;;;;;;;;;;6295457;28;20040;-66
2022/01/21 10:51:25;;;;;;;12.85;2.47;;;;;;;;;;6294810;28;20076;-66
2022/01/21 10:54:31;;;;;;;9.65;2.55;;;;;;;;;;6220794;28;20144;-66
2022/01/21 10:57:36;;;;;;;8.70;2.17;;;;;;;;;;6296257;28;20076;-66
2022/01/21 11:00:58;;;;;;;3.47;2.30;;;;;;;;;;6295285;28;20501;-66
2022/01/21 11:04:04;;;;;;;8.13;2.25;;;;;;;;;;6295801;28;20072;-66
2022/01/21 11:07:07;;;;;;;9.50;2.85;;;;;;;;;;6295451;28;20045;-65
2022/01/21 11:10:35;;;;;;;4.53;2.42;;;;;;;;;;6294156;28;20487;-65
2022/01/21 11:13:39;;;;;;;7.28;2.28;;;;;;;;;;6295189;28;20083;-63
2022/01/21 11:16:46;;;;;;;5.22;2.00;;;;;;;;;;6294150;28;20105;-63
2022/01/21 11:20:13;;;;;;;8.00;2.58;;;;;;;;;;6295276;28;20090;-63
2022/01/21 11:23:17;;;;;;;6.85;2.58;;;;;;;;;;6295158;28;20080;-63
2022/01/21 11:26:20;;;;;;;6.97;2.35;;;;;;;;;;6294469;28;20059;-63
2022/01/21 11:29:23;;;;;;;5.65;2.03;;;;;;;;;;6295355;28;20048;-65
2022/01/21 11:32:27;;;;;;;6.18;2.22;;;;;;;;;;6294812;28;20150;-65
2022/01/21 11:35:31;;;;;;;5.55;1.92;;;;;;;;;;6294505;28;20080;-66
2022/01/21 11:38:35;;;;;;;6.70;2.55;;;;;;;;;;6294006;28;20045;-65
2022/01/21 11:41:38;;;;;;;7.25;2.50;;;;;;;;;;6292151;28;20064;-66
2022/01/21 11:44:51;;;;;;;11.55;3.30;;;;;;;;;;6291100;28;20045;-65
2022/01/21 11:48:49;;;;;;;6.65;2.50;;;;;;;;;;6292935;28;20068;-67
2022/01/21 11:51:26;;;;;;;7.30;2.28;;;;;;;;;;6295779;28;20067;-66
2022/01/21 11:54:36;;;;;;;9.88;2.58;;;;;;;;;;6293746;28;20049;-66
2022/01/21 11:57:38;;;;;;;4.60;2.00;;;;;;;;;;6294506;28;20044;-66
2022/01/21 12:00:44;;;;;;;7.90;2.17;;;;;;;;;;6292645;28;20041;-66
2022/01/21 12:03:55;;;;;;;10.32;2.33;;;;;;;;;;6293044;28;20044;-66
2022/01/21 12:06:59;;;;;;;4.25;1.85;;;;;;;;;;6293111;28;20076;-66
2022/01/21 12:10:03;;;;;;;6.00;2.22;;;;;;;;;;6292486;28;20044;-67
2022/01/21 12:13:10;;;;;;;7.35;1.92;;;;;;;;;;6292799;28;20071;-66
2022/01/21 12:16:24;;;;;;;6.22;1.90;;;;;;;;;;6294350;28;20131;-67
2022/01/21 12:19:35;;;;;;;4.22;2.08;;;;;;;;;;6292170;28;20599;-65
2022/01/21 12:22:38;;;;;;;9.35;2.60;;;;;;;;;;6292412;28;20354;-66
2022/01/21 12:25:56;;;;;;;6.28;2.28;;;;;;;;;;6292741;28;20092;-65
2022/01/21 12:29:17;;;;;;;9.32;2.28;;;;;;;;;;6291700;28;20055;-66
2022/01/21 12:32:31;;;;;;;10.23;2.70;;;;;;;;;;6293128;28;20072;-65
2022/01/21 12:36:11;;;;;;;6.53;2.10;;;;;;;;;;6265334;28;20060;-65
2022/01/21 12:39:29;;;;;;;11.57;2.70;;;;;;;;;;6293429;28;20474;-64
2022/01/21 12:42:35;;;;;;;5.28;2.00;;;;;;;;;;6293094;28;20066;-62
2022/01/21 12:45:38;;;;;;;9.43;1.90;;;;;;;;;;6292618;28;20072;-64
2022/01/21 12:48:41;;;;;;;8.63;2.00;;;;;;;;;;6292679;28;20048;-63
2022/01/21 12:52:14;;;;;;;10.25;2.05;;;;;;;;;;6293005;28;20483;-63
2022/01/21 12:58:44;;;;;;;5.95;2.17;;;;;;;;;;6292742;28;20072;-64
2022/01/21 13:01:47;;;;;;;5.53;1.65;;;;;;;;;;6292275;28;20048;-65
2022/01/21 13:04:55;;;;;;;9.90;2.20;;;;;;;;;;6293592;28;20072;-62
2022/01/21 13:08:05;;;;;;;6.18;1.80;;;;;;;;;;6292578;28;20049;-63
2022/01/21 13:11:19;;;;;;;7.35;1.85;;;;;;;;;;6292417;28;20083;-65
2022/01/21 13:14:33;;;;;;;1.60;1.13;;;;;;;;;;6290817;28;20406;-65
2022/01/21 13:17:36;;;;;;;4.55;1.92;;;;;;;;;;6292988;28;20107;-64
2022/01/21 13:20:40;;;;;;;9.55;1.60;;;;;;;;;;6292234;28;20055;-64
2022/01/21 13:23:55;;;;;;;6.65;1.88;;;;;;;;;;6292073;28;20052;-64
2022/01/21 13:26:58;;;;;;;3.13;1.65;;;;;;;;;;6290693;28;20506;-64
2022/01/21 13:30:05;;;;;;;8.20;1.75;;;;;;;;;;6292114;28;20385;-64
2022/01/21 13:33:10;;;;;;;5.78;1.60;;;;;;;;;;6292096;28;20040;-65
2022/01/21 13:36:16;;;;;;;5.90;1.65;;;;;;;;;;6291573;28;20475;-65
2022/01/21 13:39:22;;;;;;;4.22;1.45;;;;;;;;;;6290908;28;20040;-64
2022/01/21 13:42:27;;;;;;;4.13;1.45;;;;;;;;;;6290511;28;20530;-63
2022/01/21 13:45:30;;;;;;;3.67;1.50;;;;;;;;;;6291949;28;20133;-64
2022/01/21 13:48:35;;;;;;;6.18;2.03;;;;;;;;;;6290725;28;20102;-63
2022/01/21 13:51:37;;;;;;;9.35;1.75;;;;;;;;;;6290477;28;20037;-64
2022/01/21 13:54:45;;;;;;;8.07;1.50;;;;;;;;;;6290392;28;20117;-64
2022/01/21 13:57:47;;;;;;;5.72;1.65;;;;;;;;;;6289626;28;20052;-65
2022/01/21 14:00:52;;;;;;;3.75;1.55;;;;;;;;;;6292205;28;20620;-65
2022/01/21 14:03:58;;;;;;;6.25;1.67;;;;;;;;;;6290436;28;20052;-65
2022/01/21 14:07:01;;;;;;;4.82;1.55;;;;;;;;;;6290131;28;20040;-65
2022/01/21 14:10:09;;;;;;;4.43;1.63;;;;;;;;;;6288956;28;20388;-66
2022/01/21 14:13:13;;;;;;;7.82;1.40;;;;;;;;;;6289689;28;20055;-65
2022/01/21 14:16:17;;;;;;;10.35;1.65;;;;;;;;;;6291435;28;20049;-65
2022/01/21 14:19:21;;;;;;;7.80;1.85;;;;;;;;;;6291099;28;20075;-65
2022/01/21 14:22:24;;;;;;;3.63;1.38;;;;;;;;;;6291566;28;20062;-65
2022/01/21 14:25:29;;;;;;;7.40;1.88;;;;;;;;;;6289871;28;20068;-65
2022/01/21 14:28:38;;;;;;;3.60;1.50;;;;;;;;;;6290946;28;20498;-66
2022/01/21 14:31:42;;;;;;;11.20;1.70;;;;;;;;;;6290173;28;20064;-66
2022/01/21 14:34:45;;;;;;;6.40;1.80;;;;;;;;;;6289878;28;20537;-64
2022/01/21 14:37:52;;;;;;;4.97;1.80;;;;;;;;;;6291456;28;20053;-62
2022/01/21 14:40:59;;;;;;;6.60;1.67;;;;;;;;;;6291296;28;20059;-64
2022/01/21 14:44:02;;;;;;;9.60;2.15;;;;;;;;;;6291491;28;20103;-64
2022/01/21 14:47:08;;;;;;;2.88;1.42;;;;;;;;;;6291296;28;20055;-64
2022/01/21 14:50:13;;;;;;;3.10;1.38;;;;;;;;;;6290840;28;20048;-64
2022/01/21 14:53:16;;;;;;;9.40;2.78;;;;;;;;;;6291203;28;20131;-64
2022/01/21 14:56:31;;;;;;;4.72;1.40;;;;;;;;;;6291156;28;20538;-64
2022/01/21 14:59:50;;;;;;;10.75;1.65;;;;;;;;;;6291217;28;20083;-64
2022/01/21 15:03:04;;;;;;;3.88;1.52;;;;;;;;;;6290517;28;20071;-64
2022/01/21 15:06:08;;;;;;;7.03;1.63;;;;;;;;;;6291202;28;20053;-65
2022/01/21 15:09:11;;;;;;;7.70;1.75;;;;;;;;;;6292182;28;20491;-65
2022/01/21 15:15:53;;;;;;;8.93;2.42;;;;;;;;;;6295396;28;20079;-66
2022/01/21 15:18:58;;;;;;;7.28;1.55;;;;;;;;;;6293865;28;20048;-65
2022/01/21 15:22:07;;;;;;;5.35;1.45;;;;;;;;;;6293664;28;20099;-65
2022/01/21 15:25:09;;;;;;;;;;;;;;;;;;6294150;28;20063;-65
2022/01/21 15:28:16;;;;;;;6.97;1.58;;;;;;;;;;6294569;28;19955;-65
2022/01/21 15:31:21;;;;;;;6.60;1.70;;;;;;;;;;6293927;28;20045;-66
2022/01/21 15:34:24;;;;;;;4.78;1.75;;;;;;;;;;6294900;28;20079;-67
2022/01/21 15:37:27;;;;;;;9.95;1.90;;;;;;;;;;6293172;28;20044;-65
2022/01/21 15:40:35;;;;;;;6.32;1.85;;;;;;;;;;6295082;28;20068;-66
2022/01/21 15:43:41;;;;;;;8.70;1.60;;;;;;;;;;6293490;28;20055;-66
2022/01/21 15:46:45;;;;;;;5.07;1.48;;;;;;;;;;6294409;28;20465;-67
2022/01/21 15:49:48;;;;;;;7.28;1.73;;;;;;;;;;6294502;28;20498;-68
2022/01/21 15:53:04;;;;;;;12.50;1.58;;;;;;;;;;6294613;28;20080;-68
2022/01/21 15:56:07;;;;;;;6.78;1.95;;;;;;;;;;6293002;28;20702;-67
2022/01/21 15:59:12;;;;;;;6.57;1.90;;;;;;;;;;6292580;28;20542;-68
2022/01/21 16:02:15;;;;;;;5.63;2.13;;;;;;;;;;6294284;28;20048;-67
2022/01/21 16:05:18;;;;;;;8.60;1.90;;;;;;;;;;6294057;28;20317;-68
2022/01/21 16:08:21;;;;;;;14.27;2.22;;;;;;;;;;6291558;28;20098;-67
2022/01/21 16:11:25;;;;;;;7.70;1.95;;;;;;;;;;6293110;28;20045;-67
2022/01/21 16:14:29;;;;;;;20.52;7.97;;;;;;;;;;6293681;28;20044;-66
2022/01/21 16:17:33;;;;;;;8.38;1.70;;;;;;;;;;6293835;28;20048;-67
2022/01/21 16:20:36;;;;;;;6.28;1.38;;;;;;;;;;6291246;28;20135;-68
2022/01/21 16:23:39;;;;;;;4.93;1.40;;;;;;;;;;6290322;28;20068;-67
2022/01/21 16:26:45;;;;;;;6.75;1.30;;;;;;;;;;6291445;28;20060;-67
2022/01/21 16:29:49;;;;;;;4.35;1.42;;;;;;;;;;6291657;28;20068;-67
2022/01/21 16:32:52;;;;;;;8.35;1.70;;;;;;;;;;6291079;28;20410;-67
2022/01/21 16:35:55;;;;;;;5.82;1.52;;;;;;;;;;6289146;28;20067;-66
2022/01/21 16:38:59;;;;;;;4.45;1.45;;;;;;;;;;6289182;28;20608;-68
2022/01/21 16:42:05;;;;;;;6.38;1.90;;;;;;;;;;6289947;28;20478;-68
2022/01/21 16:45:11;;;;;;;5.70;1.40;;;;;;;;;;6290271;28;20037;-66
2022/01/21 16:48:14;;;;;;;3.45;1.27;;;;;;;;;;6277584;28;20462;-68
2022/01/21 16:51:17;;;;;;;4.90;1.23;;;;;;;;;;6282506;28;20041;-68
2022/01/21 16:54:20;;;;;;;7.28;1.90;;;;;;;;;;6267950;28;20132;-67
2022/01/21 16:57:27;;;;;;;2.53;1.50;;;;;;;;;;6266956;28;20045;-67
2022/01/21 17:00:31;;;;;;;3.22;1.00;;;;;;;;;;6271325;28;20479;-66
2022/01/21 17:03:34;;;;;;;5.20;1.50;;;;;;;;;;6275551;28;20047;-67
2022/01/21 17:06:37;;;;;;;4.57;1.27;;;;;;;;;;6292920;28;20083;-67
2022/01/21 17:09:40;;;;;;;4.18;1.27;;;;;;;;;;6290855;28;20072;-66
2022/01/21 17:12:43;;;;;;;6.75;1.30;;;;;;;;;;6292247;28;20105;-67
2022/01/21 17:15:48;;;;;;;3.80;1.40;;;;;;;;;;6291117;28;20049;-67
2022/01/21 17:18:51;;;;;;;3.15;1.17;;;;;;;;;;6291207;28;20516;-67
2022/01/21 17:21:54;;;;;;;3.95;1.23;;;;;;;;;;6288873;28;20075;-67
2022/01/21 17:24:57;;;;;;;4.85;1.20;;;;;;;;;;6291135;28;20529;-67
2022/01/21 17:28:00;;;;;;;6.00;1.55;;;;;;;;;;6292112;28;20064;-67
2022/01/21 17:31:04;;;;;;;8.18;1.80;;;;;;;;;;6290802;28;20068;-67
2022/01/21 17:34:09;;;;;;;5.93;1.40;;;;;;;;;;6288746;28;20055;-66
2022/01/21 17:37:13;;;;;;;8.23;1.48;;;;;;;;;;6292434;28;20051;-67
2022/01/21 17:40:17;;;;;;;2.30;1.15;;;;;;;;;;6291930;28;20051;-66
2022/01/21 17:43:21;;;;;;;4.28;1.60;;;;;;;;;;6283776;28;20064;-66
2022/01/21 17:46:25;;;;;;;6.43;1.73;;;;;;;;;;6270599;28;20055;-66
2022/01/21 17:49:31;;;;;;;2.65;1.48;;;;;;;;;;6267076;28;20080;-67
2022/01/21 17:52:37;;;;;;;5.50;1.77;;;;;;;;;;6272361;28;20045;-66
2022/01/21 17:55:40;;;;;;;7.38;1.70;;;;;;;;;;6291084;28;20114;-67
2022/01/21 17:58:45;;;;;;;6.95;1.65;;;;;;;;;;6268511;28;20049;-67
2022/01/21 18:01:50;;;;;;;4.93;1.92;;;;;;;;;;6267908;28;20102;-67
2022/01/21 18:04:53;;;;;;;4.38;1.30;;;;;;;;;;6265454;28;20053;-67
2022/01/21 18:07:56;;;;;;;4.68;1.38;;;;;;;;;;6279320;28;20517;-65
2022/01/21 18:11:04;;;;;;;4.82;1.30;;;;;;;;;;6286659;28;20051;-65
2022/01/21 18:14:10;;;;;;;5.95;1.73;;;;;;;;;;6291204;28;20829;-67
2022/01/21 18:17:15;;;;;;;6.53;1.60;;;;;;;;;;6289403;28;20040;-65
2022/01/21 18:20:19;;;;;;;7.63;2.25;;;;;;;;;;6291790;28;20053;-66
2022/01/21 18:23:22;;;;;;;4.43;1.42;;;;;;;;;;6290349;28;20118;-66
2022/01/21 18:26:26;;;;;;;8.10;1.80;;;;;;;;;;6276250;28;20142;-65
2022/01/21 18:29:29;;;;;;;7.88;2.45;;;;;;;;;;6265396;28;20589;-65
2022/01/21 18:32:34;;;;;;;3.85;1.52;;;;;;;;;;6265806;28;20068;-66
2022/01/21 18:35:37;;;;;;;6.90;1.90;;;;;;;;;;6270037;28;20037;-66
2022/01/21 18:38:43;;;;;;;8.50;1.95;;;;;;;;;;6291307;28;20059;-66
2022/01/21 18:42:03;;;;;;;6.85;1.90;;;;;;;;;;6279793;28;20445;-65
2022/01/21 18:45:10;;;;;;;6.45;2.20;;;;;;;;;;6268670;28;20490;-65
2022/01/21 18:48:18;;;;;;;5.68;2.28;;;;;;;;;;6294287;28;20041;-63
2022/01/21 18:51:25;;;;;;;10.68;2.45;;;;;;;;;;6296166;28;20055;-63
2022/01/21 18:54:29;;;;;;;8.10;1.85;;;;;;;;;;6280432;28;20045;-64
2022/01/21 18:57:32;;;;;;;6.25;2.28;;;;;;;;;;6273822;28;20510;-65
2022/01/21 19:00:35;;;;;;;5.13;1.92;;;;;;;;;;6271059;28;20542;-65
2022/01/21 19:03:40;;;;;;;7.15;1.80;;;;;;;;;;6272302;28;20679;-65
2022/01/21 19:06:44;;;;;;;6.57;2.15;;;;;;;;;;6270927;28;20045;-65
2022/01/21 19:09:47;;;;;;;6.35;1.98;;;;;;;;;;6270569;28;20458;-65
2022/01/21 19:12:50;;;;;;;8.82;2.03;;;;;;;;;;6270277;28;20066;-64
2022/01/21 19:15:53;;;;;;;2.72;1.52;;;;;;;;;;6270786;28;20436;-65
2022/01/21 19:18:57;;;;;;;3.30;1.73;;;;;;;;;;6270133;28;20045;-65
2022/01/21 19:22:06;;;;;;;8.02;2.80;;;;;;;;;;6272622;28;20069;-66